sensor_id;sensor_type;location;lat;lon;timestamp;temperature;humidity
13416;DHT22;6779;50.150;8.680;2022-09-17T00:01:57;11.20;1.00
13416;DHT22;6779;50.150;8.680;2022-09-17T00:04:23;11.20;1.00
13416;DHT22;6779;50.150;8.680;2022-09-17T00:06:49;11.10;99.90
13416;DHT22;6779;50.150;8.680;2022-09-17T00:09:15;11.20;99.90
13416;DHT22;6779;50.150;8.680;2022-09-17T00:11:42;11.10;99.90
13416;DHT22;6779;50.150;8.680;2022-09-17T00:14:12;11.20;99.90
13416;DHT22;6779;50.150;8.680;2022-09-17T00:16:41;11.20;99.90
13416;DHT22;6779;50.150;8.680;2022-09-17T00:19:13;11.20;1.00
13416;DHT22;6779;50.150;8.680;2022-09-17T00:21:40;11.20;27.40
13416;DHT22;6779;50.150;8.680;2022-09-17T00:24:06;11.20;99.90
13416;DHT22;6779;50.150;8.680;2022-09-17T00:26:32;11.30;42.30
13416;DHT22;6779;50.150;8.680;2022-09-17T00:29:00;11.30;1.00
13416;DHT22;6779;50.150;8.680;2022-09-17T00:31:26;11.30;1.00
13416;DHT22;6779;50.150;8.680;2022-09-17T00:33:53;11.30;99.90
13416;DHT22;6779;50.150;8.680;2022-09-17T00:36:19;11.40;99.90
13416;DHT22;6779;50.150;8.680;2022-09-17T00:38:52;11.40;1.00
13416;DHT22;6779;50.150;8.680;2022-09-17T00:41:19;11.40;99.90
13416;DHT22;6779;50.150;8.680;2022-09-17T00:43:53;11.40;99.90
13416;DHT22;6779;50.150;8.680;2022-09-17T00:46:42;11.30;99.90
13416;DHT22;6779;50.150;8.680;2022-09-17T00:49:22;11.30;99.90
13416;DHT22;6779;50.150;8.680;2022-09-17T00:52:00;11.20;99.90
13416;DHT22;6779;50.150;8.680;2022-09-17T00:54:28;11.20;99.90
13416;DHT22;6779;50.150;8.680;2022-09-17T00:56:55;11.20;99.90
13416;DHT22;6779;50.150;8.680;2022-09-17T00:59:22;11.20;99.90
13416;DHT22;6779;50.150;8.680;2022-09-17T01:01:48;11.20;1.00
13416;DHT22;6779;50.150;8.680;2022-09-17T01:04:23;11.20;1.00
13416;DHT22;6779;50.150;8.680;2022-09-17T01:09:52;11.20;30.00
13416;DHT22;6779;50.150;8.680;2022-09-17T01:18:18;11.30;99.90
13416;DHT22;6779;50.150;8.680;2022-09-17T01:35:10;11.30;1.00
13416;DHT22;6779;50.150;8.680;2022-09-17T01:40:30;11.30;99.90
13416;DHT22;6779;50.150;8.680;2022-09-17T01:43:12;11.30;1.00
13416;DHT22;6779;50.150;8.680;2022-09-17T01:46:02;11.30;1.00
13416;DHT22;6779;50.150;8.680;2022-09-17T01:48:36;11.30;1.00
13416;DHT22;6779;50.150;8.680;2022-09-17T01:51:08;11.30;99.90
13416;DHT22;6779;50.150;8.680;2022-09-17T01:53:58;11.30;1.00
13416;DHT22;6779;50.150;8.680;2022-09-17T01:56:36;11.30;46.30
13416;DHT22;6779;50.150;8.680;2022-09-17T01:59:19;11.40;1.00
13416;DHT22;6779;50.150;8.680;2022-09-17T02:01:50;11.30;1.00
13416;DHT22;6779;50.150;8.680;2022-09-17T02:04:26;11.30;1.00
13416;DHT22;6779;50.150;8.680;2022-09-17T02:06:59;11.30;99.90
13416;DHT22;6779;50.150;8.680;2022-09-17T02:09:35;11.40;99.90
13416;DHT22;6779;50.150;8.680;2022-09-17T02:12:07;11.30;1.00
13416;DHT22;6779;50.150;8.680;2022-09-17T02:14:40;11.20;1.00
13416;DHT22;6779;50.150;8.680;2022-09-17T02:17:14;11.20;16.00
13416;DHT22;6779;50.150;8.680;2022-09-17T02:19:41;11.20;99.90
13416;DHT22;6779;50.150;8.680;2022-09-17T02:25:14;11.10;99.90
13416;DHT22;6779;50.150;8.680;2022-09-17T02:30:21;11.20;38.60
13416;DHT22;6779;50.150;8.680;2022-09-17T02:32:47;11.20;1.00
13416;DHT22;6779;50.150;8.680;2022-09-17T02:35:14;11.10;1.00
13416;DHT22;6779;50.150;8.680;2022-09-17T02:37:41;11.20;37.90
13416;DHT22;6779;50.150;8.680;2022-09-17T02:40:11;11.30;99.90
13416;DHT22;6779;50.150;8.680;2022-09-17T02:42:57;11.30;99.90
13416;DHT22;6779;50.150;8.680;2022-09-17T02:48:19;11.30;99.90
13416;DHT22;6779;50.150;8.680;2022-09-17T02:56:20;11.40;99.90
13416;DHT22;6779;50.150;8.680;2022-09-17T02:58:56;11.20;1.00
13416;DHT22;6779;50.150;8.680;2022-09-17T03:01:29;11.10;91.10
13416;DHT22;6779;50.150;8.680;2022-09-17T03:03:59;11.20;35.50
13416;DHT22;6779;50.150;8.680;2022-09-17T03:06:26;11.20;99.90
13416;DHT22;6779;50.150;8.680;2022-09-17T03:08:52;11.20;65.90
13416;DHT22;6779;50.150;8.680;2022-09-17T03:11:17;11.10;99.90
13416;DHT22;6779;50.150;8.680;2022-09-17T03:13:43;11.10;99.90
13416;DHT22;6779;50.150;8.680;2022-09-17T03:16:09;11.00;1.00
13416;DHT22;6779;50.150;8.680;2022-09-17T03:18:34;11.00;99.90
13416;DHT22;6779;50.150;8.680;2022-09-17T03:21:00;11.00;1.00
13416;DHT22;6779;50.150;8.680;2022-09-17T03:23:26;10.90;1.00
13416;DHT22;6779;50.150;8.680;2022-09-17T03:25:52;10.90;1.00
13416;DHT22;6779;50.150;8.680;2022-09-17T03:28:18;10.80;1.00
13416;DHT22;6779;50.150;8.680;2022-09-17T03:30:44;10.80;1.00
13416;DHT22;6779;50.150;8.680;2022-09-17T03:33:10;10.70;19.30
13416;DHT22;6779;50.150;8.680;2022-09-17T03:35:35;10.60;1.00
13416;DHT22;6779;50.150;8.680;2022-09-17T03:38:01;10.60;50.70
13416;DHT22;6779;50.150;8.680;2022-09-17T03:40:27;10.50;66.30
13416;DHT22;6779;50.150;8.680;2022-09-17T03:42:52;10.50;90.90
13416;DHT22;6779;50.150;8.680;2022-09-17T03:45:18;10.50;99.90
13416;DHT22;6779;50.150;8.680;2022-09-17T03:47:43;10.40;99.90
13416;DHT22;6779;50.150;8.680;2022-09-17T03:50:09;10.50;99.90
13416;DHT22;6779;50.150;8.680;2022-09-17T03:52:34;10.40;99.90
13416;DHT22;6779;50.150;8.680;2022-09-17T03:55:01;10.40;94.80
13416;DHT22;6779;50.150;8.680;2022-09-17T03:57:26;10.40;99.90
13416;DHT22;6779;50.150;8.680;2022-09-17T03:59:51;10.40;99.90
13416;DHT22;6779;50.150;8.680;2022-09-17T04:02:17;10.40;78.60
13416;DHT22;6779;50.150;8.680;2022-09-17T04:04:42;10.50;98.20
13416;DHT22;6779;50.150;8.680;2022-09-17T04:07:08;10.50;99.90
13416;DHT22;6779;50.150;8.680;2022-09-17T04:09:34;10.50;99.90
13416;DHT22;6779;50.150;8.680;2022-09-17T04:11:59;10.50;93.00
13416;DHT22;6779;50.150;8.680;2022-09-17T04:14:25;10.60;99.90
13416;DHT22;6779;50.150;8.680;2022-09-17T04:16:51;10.50;96.30
13416;DHT22;6779;50.150;8.680;2022-09-17T04:19:16;10.50;99.90
13416;DHT22;6779;50.150;8.680;2022-09-17T04:21:42;10.50;96.10
13416;DHT22;6779;50.150;8.680;2022-09-17T04:24:07;10.50;84.30
13416;DHT22;6779;50.150;8.680;2022-09-17T04:26:33;10.50;61.60
13416;DHT22;6779;50.150;8.680;2022-09-17T04:28:58;10.50;90.60
13416;DHT22;6779;50.150;8.680;2022-09-17T04:31:25;10.60;99.90
13416;DHT22;6779;50.150;8.680;2022-09-17T04:33:51;10.60;36.90
13416;DHT22;6779;50.150;8.680;2022-09-17T04:36:17;10.60;70.70
13416;DHT22;6779;50.150;8.680;2022-09-17T04:38:42;10.60;38.90
13416;DHT22;6779;50.150;8.680;2022-09-17T04:41:08;10.70;43.60
13416;DHT22;6779;50.150;8.680;2022-09-17T04:43:34;10.70;58.50
13416;DHT22;6779;50.150;8.680;2022-09-17T04:45:59;10.70;30.20
13416;DHT22;6779;50.150;8.680;2022-09-17T04:48:25;10.70;22.50
13416;DHT22;6779;50.150;8.680;2022-09-17T04:50:50;10.70;29.20
13416;DHT22;6779;50.150;8.680;2022-09-17T04:53:16;10.70;1.00
13416;DHT22;6779;50.150;8.680;2022-09-17T04:55:43;10.80;23.40
13416;DHT22;6779;50.150;8.680;2022-09-17T04:58:09;10.80;10.50
13416;DHT22;6779;50.150;8.680;2022-09-17T05:00:35;10.90;12.20
13416;DHT22;6779;50.150;8.680;2022-09-17T05:03:01;10.80;1.00
13416;DHT22;6779;50.150;8.680;2022-09-17T05:05:26;10.80;1.00
13416;DHT22;6779;50.150;8.680;2022-09-17T05:07:52;10.90;12.90
13416;DHT22;6779;50.150;8.680;2022-09-17T05:10:19;10.80;29.30
13416;DHT22;6779;50.150;8.680;2022-09-17T05:12:53;10.80;1.00
13416;DHT22;6779;50.150;8.680;2022-09-17T05:15:20;10.80;1.00
13416;DHT22;6779;50.150;8.680;2022-09-17T05:17:46;10.90;1.00
13416;DHT22;6779;50.150;8.680;2022-09-17T05:20:13;10.90;1.00
13416;DHT22;6779;50.150;8.680;2022-09-17T05:22:42;10.90;1.00
13416;DHT22;6779;50.150;8.680;2022-09-17T05:25:08;10.90;1.00
13416;DHT22;6779;50.150;8.680;2022-09-17T05:27:34;10.90;1.00
13416;DHT22;6779;50.150;8.680;2022-09-17T05:30:00;10.90;1.00
13416;DHT22;6779;50.150;8.680;2022-09-17T05:32:25;10.90;1.00
13416;DHT22;6779;50.150;8.680;2022-09-17T05:34:51;10.90;1.00
13416;DHT22;6779;50.150;8.680;2022-09-17T05:37:16;10.90;1.00
13416;DHT22;6779;50.150;8.680;2022-09-17T05:39:42;10.80;6.10
13416;DHT22;6779;50.150;8.680;2022-09-17T05:42:07;10.90;1.00
13416;DHT22;6779;50.150;8.680;2022-09-17T05:44:33;10.80;1.00
13416;DHT22;6779;50.150;8.680;2022-09-17T05:46:58;10.80;1.00
13416;DHT22;6779;50.150;8.680;2022-09-17T05:49:24;10.80;1.00
13416;DHT22;6779;50.150;8.680;2022-09-17T05:51:50;10.80;16.10
13416;DHT22;6779;50.150;8.680;2022-09-17T05:54:16;10.80;1.00
13416;DHT22;6779;50.150;8.680;2022-09-17T05:56:41;10.80;1.00
13416;DHT22;6779;50.150;8.680;2022-09-17T05:59:07;10.80;1.00
13416;DHT22;6779;50.150;8.680;2022-09-17T06:01:32;10.90;19.00
13416;DHT22;6779;50.150;8.680;2022-09-17T06:03:58;10.90;1.00
13416;DHT22;6779;50.150;8.680;2022-09-17T06:06:23;11.00;1.00
13416;DHT22;6779;50.150;8.680;2022-09-17T06:08:49;10.90;1.00
13416;DHT22;6779;50.150;8.680;2022-09-17T06:11:14;11.00;1.00
13416;DHT22;6779;50.150;8.680;2022-09-17T06:13:40;11.10;1.00
13416;DHT22;6779;50.150;8.680;2022-09-17T06:16:07;11.20;1.00
13416;DHT22;6779;50.150;8.680;2022-09-17T06:18:33;11.20;1.00
13416;DHT22;6779;50.150;8.680;2022-09-17T06:21:00;11.30;1.00
13416;DHT22;6779;50.150;8.680;2022-09-17T06:23:30;11.20;1.00
13416;DHT22;6779;50.150;8.680;2022-09-17T06:25:57;11.20;99.90
13416;DHT22;6779;50.150;8.680;2022-09-17T06:28:27;11.20;99.90
13416;DHT22;6779;50.150;8.680;2022-09-17T06:30:53;11.30;68.90
13416;DHT22;6779;50.150;8.680;2022-09-17T06:33:22;11.30;1.00
13416;DHT22;6779;50.150;8.680;2022-09-17T06:35:48;11.30;1.00
13416;DHT22;6779;50.150;8.680;2022-09-17T06:38:14;11.40;99.90
13416;DHT22;6779;50.150;8.680;2022-09-17T06:40:40;11.40;99.90
13416;DHT22;6779;50.150;8.680;2022-09-17T06:43:05;11.40;99.90
13416;DHT22;6779;50.150;8.680;2022-09-17T06:45:31;11.50;1.00
13416;DHT22;6779;50.150;8.680;2022-09-17T06:47:57;11.60;99.90
13416;DHT22;6779;50.150;8.680;2022-09-17T06:50:22;11.60;99.90
13416;DHT22;6779;50.150;8.680;2022-09-17T06:52:50;11.60;99.90
13416;DHT22;6779;50.150;8.680;2022-09-17T06:55:16;11.60;26.20
13416;DHT22;6779;50.150;8.680;2022-09-17T06:57:42;11.70;99.90
13416;DHT22;6779;50.150;8.680;2022-09-17T07:00:08;11.70;99.90
13416;DHT22;6779;50.150;8.680;2022-09-17T07:02:34;11.80;99.90
13416;DHT22;6779;50.150;8.680;2022-09-17T07:05:00;11.80;99.90
13416;DHT22;6779;50.150;8.680;2022-09-17T07:07:26;12.00;99.90
13416;DHT22;6779;50.150;8.680;2022-09-17T07:09:51;12.10;99.90
13416;DHT22;6779;50.150;8.680;2022-09-17T07:12:18;12.20;22.00
13416;DHT22;6779;50.150;8.680;2022-09-17T07:14:44;12.20;99.90
13416;DHT22;6779;50.150;8.680;2022-09-17T07:17:09;12.20;99.90
13416;DHT22;6779;50.150;8.680;2022-09-17T07:19:35;12.20;99.90
13416;DHT22;6779;50.150;8.680;2022-09-17T07:22:00;12.10;1.00
13416;DHT22;6779;50.150;8.680;2022-09-17T07:24:26;12.20;1.00
13416;DHT22;6779;50.150;8.680;2022-09-17T07:26:51;12.20;1.00
13416;DHT22;6779;50.150;8.680;2022-09-17T07:29:16;12.20;99.90
13416;DHT22;6779;50.150;8.680;2022-09-17T07:31:43;12.10;1.00
13416;DHT22;6779;50.150;8.680;2022-09-17T07:34:09;12.20;99.90
13416;DHT22;6779;50.150;8.680;2022-09-17T07:36:35;12.20;99.90
13416;DHT22;6779;50.150;8.680;2022-09-17T07:39:00;12.30;99.90
13416;DHT22;6779;50.150;8.680;2022-09-17T07:41:26;12.30;99.90
13416;DHT22;6779;50.150;8.680;2022-09-17T07:43:52;12.40;99.90
13416;DHT22;6779;50.150;8.680;2022-09-17T07:46:19;12.40;99.90
13416;DHT22;6779;50.150;8.680;2022-09-17T07:48:46;12.50;99.90
13416;DHT22;6779;50.150;8.680;2022-09-17T07:51:16;12.40;93.70
13416;DHT22;6779;50.150;8.680;2022-09-17T07:53:42;12.40;99.90
13416;DHT22;6779;50.150;8.680;2022-09-17T07:56:07;12.50;1.30
13416;DHT22;6779;50.150;8.680;2022-09-17T07:58:33;12.70;1.00
13416;DHT22;6779;50.150;8.680;2022-09-17T08:01:09;12.80;99.90
13416;DHT22;6779;50.150;8.680;2022-09-17T08:03:36;12.90;99.90
13416;DHT22;6779;50.150;8.680;2022-09-17T08:06:07;13.00;99.90
13416;DHT22;6779;50.150;8.680;2022-09-17T08:08:34;13.10;99.90
13416;DHT22;6779;50.150;8.680;2022-09-17T08:11:08;13.20;99.90
13416;DHT22;6779;50.150;8.680;2022-09-17T08:13:34;13.20;99.90
13416;DHT22;6779;50.150;8.680;2022-09-17T08:16:08;13.20;99.90
13416;DHT22;6779;50.150;8.680;2022-09-17T08:18:34;13.40;99.90
13416;DHT22;6779;50.150;8.680;2022-09-17T08:21:01;13.40;99.90
13416;DHT22;6779;50.150;8.680;2022-09-17T08:23:29;13.50;99.90
13416;DHT22;6779;50.150;8.680;2022-09-17T08:25:57;13.50;99.90
13416;DHT22;6779;50.150;8.680;2022-09-17T08:28:24;13.30;99.90
13416;DHT22;6779;50.150;8.680;2022-09-17T08:30:51;13.10;99.90
13416;DHT22;6779;50.150;8.680;2022-09-17T08:33:17;12.90;99.90
13416;DHT22;6779;50.150;8.680;2022-09-17T08:35:53;12.90;1.00
13416;DHT22;6779;50.150;8.680;2022-09-17T08:38:19;13.00;1.00
13416;DHT22;6779;50.150;8.680;2022-09-17T08:43:21;13.50;99.90
13416;DHT22;6779;50.150;8.680;2022-09-17T08:45:55;13.70;99.90
13416;DHT22;6779;50.150;8.680;2022-09-17T08:48:24;13.70;99.90
13416;DHT22;6779;50.150;8.680;2022-09-17T08:50:50;13.50;92.20
13416;DHT22;6779;50.150;8.680;2022-09-17T08:53:26;13.80;99.90
13416;DHT22;6779;50.150;8.680;2022-09-17T08:56:03;14.00;27.00
13416;DHT22;6779;50.150;8.680;2022-09-17T09:03:59;15.20;1.00
13416;DHT22;6779;50.150;8.680;2022-09-17T09:06:38;15.70;1.00
13416;DHT22;6779;50.150;8.680;2022-09-17T09:09:13;16.90;1.00
13416;DHT22;6779;50.150;8.680;2022-09-17T09:11:41;18.00;99.90
13416;DHT22;6779;50.150;8.680;2022-09-17T09:14:19;18.40;99.90
13416;DHT22;6779;50.150;8.680;2022-09-17T09:16:47;18.10;99.90
13416;DHT22;6779;50.150;8.680;2022-09-17T09:19:23;18.40;99.90
13416;DHT22;6779;50.150;8.680;2022-09-17T09:24:25;17.70;99.90
13416;DHT22;6779;50.150;8.680;2022-09-17T09:29:43;16.40;99.90
13416;DHT22;6779;50.150;8.680;2022-09-17T09:34:48;18.10;99.90
13416;DHT22;6779;50.150;8.680;2022-09-17T09:37:22;19.40;99.90
13416;DHT22;6779;50.150;8.680;2022-09-17T09:39:51;20.70;99.90
13416;DHT22;6779;50.150;8.680;2022-09-17T09:42:30;19.90;99.90
13416;DHT22;6779;50.150;8.680;2022-09-17T09:45:10;18.50;99.90
13416;DHT22;6779;50.150;8.680;2022-09-17T09:47:58;17.80;99.90
13416;DHT22;6779;50.150;8.680;2022-09-17T09:50:46;17.00;99.90
13416;DHT22;6779;50.150;8.680;2022-09-17T09:53:39;16.40;99.90
13416;DHT22;6779;50.150;8.680;2022-09-17T09:56:27;16.30;99.90
13416;DHT22;6779;50.150;8.680;2022-09-17T09:58:56;16.20;99.90
13416;DHT22;6779;50.150;8.680;2022-09-17T10:01:26;16.10;99.90
13416;DHT22;6779;50.150;8.680;2022-09-17T10:03:52;15.90;99.90
13416;DHT22;6779;50.150;8.680;2022-09-17T10:06:20;15.60;99.90
13416;DHT22;6779;50.150;8.680;2022-09-17T10:11:25;15.00;99.90
13416;DHT22;6779;50.150;8.680;2022-09-17T10:13:51;15.00;99.90
13416;DHT22;6779;50.150;8.680;2022-09-17T10:16:24;14.90;99.90
13416;DHT22;6779;50.150;8.680;2022-09-17T10:19:11;15.00;99.90
13416;DHT22;6779;50.150;8.680;2022-09-17T10:21:40;14.90;99.90
13416;DHT22;6779;50.150;8.680;2022-09-17T10:24:27;14.90;99.90
13416;DHT22;6779;50.150;8.680;2022-09-17T10:27:09;14.80;1.00
13416;DHT22;6779;50.150;8.680;2022-09-17T10:29:36;14.80;1.00
13416;DHT22;6779;50.150;8.680;2022-09-17T10:32:14;14.90;1.00
13416;DHT22;6779;50.150;8.680;2022-09-17T10:34:56;15.00;99.90
13416;DHT22;6779;50.150;8.680;2022-09-17T10:37:41;15.20;99.90
13416;DHT22;6779;50.150;8.680;2022-09-17T10:42:43;15.50;99.90
13416;DHT22;6779;50.150;8.680;2022-09-17T10:45:26;15.20;99.90
13416;DHT22;6779;50.150;8.680;2022-09-17T10:47:52;15.40;99.90
13416;DHT22;6779;50.150;8.680;2022-09-17T10:50:36;15.40;99.90
13416;DHT22;6779;50.150;8.680;2022-09-17T10:53:05;15.50;99.90
13416;DHT22;6779;50.150;8.680;2022-09-17T10:55:35;15.60;99.90
13416;DHT22;6779;50.150;8.680;2022-09-17T10:58:16;15.90;99.90
13416;DHT22;6779;50.150;8.680;2022-09-17T11:11:53;16.10;99.90
13416;DHT22;6779;50.150;8.680;2022-09-17T11:20:54;19.00;99.90
13416;DHT22;6779;50.150;8.680;2022-09-17T11:34:59;22.00;99.90
13416;DHT22;6779;50.150;8.680;2022-09-17T11:37:35;22.10;99.90
13416;DHT22;6779;50.150;8.680;2022-09-17T11:40:13;21.60;99.90
13416;DHT22;6779;50.150;8.680;2022-09-17T11:42:54;20.50;99.90
13416;DHT22;6779;50.150;8.680;2022-09-17T11:45:24;19.50;99.90
13416;DHT22;6779;50.150;8.680;2022-09-17T11:47:55;17.10;99.90
13416;DHT22;6779;50.150;8.680;2022-09-17T11:50:44;14.80;1.00
13416;DHT22;6779;50.150;8.680;2022-09-17T11:53:15;13.70;1.00
13416;DHT22;6779;50.150;8.680;2022-09-17T11:59:12;13.40;56.90
13416;DHT22;6779;50.150;8.680;2022-09-17T12:01:53;13.40;97.00
13416;DHT22;6779;50.150;8.680;2022-09-17T12:04:45;13.30;88.80
13416;DHT22;6779;50.150;8.680;2022-09-17T12:10:27;14.20;99.90
13416;DHT22;6779;50.150;8.680;2022-09-17T12:15:39;15.10;99.90
13416;DHT22;6779;50.150;8.680;2022-09-17T12:20:49;15.80;99.90
13416;DHT22;6779;50.150;8.680;2022-09-17T12:23:25;16.20;99.90
13416;DHT22;6779;50.150;8.680;2022-09-17T12:28:57;16.60;1.00
13416;DHT22;6779;50.150;8.680;2022-09-17T12:34:45;16.90;1.00
13416;DHT22;6779;50.150;8.680;2022-09-17T12:56:03;17.10;1.00
13416;DHT22;6779;50.150;8.680;2022-09-17T13:01:31;17.00;99.90
13416;DHT22;6779;50.150;8.680;2022-09-17T13:12:55;16.90;99.90
13416;DHT22;6779;50.150;8.680;2022-09-17T13:15:34;17.20;99.90
13416;DHT22;6779;50.150;8.680;2022-09-17T13:21:07;17.40;99.90
13416;DHT22;6779;50.150;8.680;2022-09-17T13:23:41;17.00;99.90
13416;DHT22;6779;50.150;8.680;2022-09-17T13:26:08;17.20;99.90
13416;DHT22;6779;50.150;8.680;2022-09-17T13:28:56;17.30;99.90
13416;DHT22;6779;50.150;8.680;2022-09-17T13:34:28;17.50;99.90
13416;DHT22;6779;50.150;8.680;2022-09-17T13:36:56;17.30;99.90
13416;DHT22;6779;50.150;8.680;2022-09-17T13:47:37;17.40;99.90
13416;DHT22;6779;50.150;8.680;2022-09-17T13:50:09;17.20;99.90
13416;DHT22;6779;50.150;8.680;2022-09-17T13:52:46;16.90;99.90
13416;DHT22;6779;50.150;8.680;2022-09-17T13:57:59;16.30;99.90
13416;DHT22;6779;50.150;8.680;2022-09-17T14:01:00;16.20;99.90
13416;DHT22;6779;50.150;8.680;2022-09-17T14:13:53;15.00;99.90
13416;DHT22;6779;50.150;8.680;2022-09-17T14:24:22;14.90;1.00
13416;DHT22;6779;50.150;8.680;2022-09-17T14:35:25;14.60;1.00
13416;DHT22;6779;50.150;8.680;2022-09-17T14:37:59;14.40;1.00
13416;DHT22;6779;50.150;8.680;2022-09-17T14:40:25;14.10;99.90
13416;DHT22;6779;50.150;8.680;2022-09-17T14:42:54;13.70;99.90
13416;DHT22;6779;50.150;8.680;2022-09-17T14:45:32;13.50;99.90
13416;DHT22;6779;50.150;8.680;2022-09-17T14:48:27;13.40;99.90
13416;DHT22;6779;50.150;8.680;2022-09-17T14:51:15;13.40;99.90
13416;DHT22;6779;50.150;8.680;2022-09-17T14:54:25;13.70;99.90
13416;DHT22;6779;50.150;8.680;2022-09-17T14:56:38;13.90;22.60
13416;DHT22;6779;50.150;8.680;2022-09-17T14:59:21;14.00;1.00
13416;DHT22;6779;50.150;8.680;2022-09-17T15:01:48;14.20;1.00
13416;DHT22;6779;50.150;8.680;2022-09-17T15:06:39;14.80;1.00
13416;DHT22;6779;50.150;8.680;2022-09-17T15:09:17;15.00;1.00
13416;DHT22;6779;50.150;8.680;2022-09-17T15:11:44;15.30;1.00
13416;DHT22;6779;50.150;8.680;2022-09-17T15:14:17;15.60;1.00
13416;DHT22;6779;50.150;8.680;2022-09-17T15:16:53;15.80;1.00
13416;DHT22;6779;50.150;8.680;2022-09-17T15:19:26;15.70;1.00
13416;DHT22;6779;50.150;8.680;2022-09-17T15:21:56;15.60;1.00
13416;DHT22;6779;50.150;8.680;2022-09-17T15:27:37;15.20;1.00
13416;DHT22;6779;50.150;8.680;2022-09-17T15:30:21;15.00;1.00
13416;DHT22;6779;50.150;8.680;2022-09-17T15:32:55;15.00;1.00
13416;DHT22;6779;50.150;8.680;2022-09-17T15:35:28;14.90;1.00
13416;DHT22;6779;50.150;8.680;2022-09-17T15:37:57;14.90;1.00
13416;DHT22;6779;50.150;8.680;2022-09-17T15:40:41;15.00;1.00
13416;DHT22;6779;50.150;8.680;2022-09-17T15:43:32;15.00;1.00
13416;DHT22;6779;50.150;8.680;2022-09-17T15:46:24;15.00;1.00
13416;DHT22;6779;50.150;8.680;2022-09-17T15:48:51;15.00;1.00
13416;DHT22;6779;50.150;8.680;2022-09-17T15:51:26;14.80;1.00
13416;DHT22;6779;50.150;8.680;2022-09-17T15:53:55;14.50;1.00
13416;DHT22;6779;50.150;8.680;2022-09-17T15:56:27;14.40;1.00
13416;DHT22;6779;50.150;8.680;2022-09-17T15:59:20;14.30;1.00
13416;DHT22;6779;50.150;8.680;2022-09-17T16:09:50;13.80;1.00
13416;DHT22;6779;50.150;8.680;2022-09-17T16:12:22;13.70;1.00
13416;DHT22;6779;50.150;8.680;2022-09-17T16:14:53;13.60;1.00
13416;DHT22;6779;50.150;8.680;2022-09-17T16:17:32;13.60;1.00
13416;DHT22;6779;50.150;8.680;2022-09-17T16:20:21;13.50;27.40
13416;DHT22;6779;50.150;8.680;2022-09-17T16:22:48;13.50;1.00
13416;DHT22;6779;50.150;8.680;2022-09-17T16:25:22;13.60;18.90
13416;DHT22;6779;50.150;8.680;2022-09-17T16:27:57;13.50;1.00
13416;DHT22;6779;50.150;8.680;2022-09-17T16:30:24;13.50;1.00
13416;DHT22;6779;50.150;8.680;2022-09-17T16:32:50;13.30;1.00
13416;DHT22;6779;50.150;8.680;2022-09-17T16:35:18;13.30;1.00
13416;DHT22;6779;50.150;8.680;2022-09-17T16:37:47;13.40;1.00
13416;DHT22;6779;50.150;8.680;2022-09-17T16:40:13;13.40;1.00
13416;DHT22;6779;50.150;8.680;2022-09-17T16:42:39;13.50;1.00
13416;DHT22;6779;50.150;8.680;2022-09-17T16:45:05;13.40;1.00
13416;DHT22;6779;50.150;8.680;2022-09-17T16:47:39;13.40;1.00
13416;DHT22;6779;50.150;8.680;2022-09-17T16:50:07;13.40;1.00
13416;DHT22;6779;50.150;8.680;2022-09-17T16:52:33;13.20;1.00
13416;DHT22;6779;50.150;8.680;2022-09-17T16:54:59;13.20;1.00
13416;DHT22;6779;50.150;8.680;2022-09-17T16:57:25;13.20;1.00
13416;DHT22;6779;50.150;8.680;2022-09-17T16:59:50;13.20;1.00
13416;DHT22;6779;50.150;8.680;2022-09-17T17:02:16;13.10;1.00
13416;DHT22;6779;50.150;8.680;2022-09-17T17:04:41;13.00;1.00
13416;DHT22;6779;50.150;8.680;2022-09-17T17:07:07;12.80;96.00
13416;DHT22;6779;50.150;8.680;2022-09-17T17:09:32;12.70;99.90
13416;DHT22;6779;50.150;8.680;2022-09-17T17:11:58;12.60;99.90
13416;DHT22;6779;50.150;8.680;2022-09-17T17:14:24;12.60;99.90
13416;DHT22;6779;50.150;8.680;2022-09-17T17:16:49;12.50;99.90
13416;DHT22;6779;50.150;8.680;2022-09-17T17:19:14;12.40;99.90
13416;DHT22;6779;50.150;8.680;2022-09-17T17:21:40;12.40;99.90
13416;DHT22;6779;50.150;8.680;2022-09-17T17:24:05;12.40;99.90
13416;DHT22;6779;50.150;8.680;2022-09-17T17:26:32;12.40;99.90
13416;DHT22;6779;50.150;8.680;2022-09-17T17:28:58;12.40;99.90
13416;DHT22;6779;50.150;8.680;2022-09-17T17:31:23;12.40;99.90
13416;DHT22;6779;50.150;8.680;2022-09-17T17:33:49;12.40;99.90
13416;DHT22;6779;50.150;8.680;2022-09-17T17:36:14;12.30;99.90
13416;DHT22;6779;50.150;8.680;2022-09-17T17:38:40;12.20;99.90
13416;DHT22;6779;50.150;8.680;2022-09-17T17:41:11;12.20;99.90
13416;DHT22;6779;50.150;8.680;2022-09-17T17:43:37;12.10;99.90
13416;DHT22;6779;50.150;8.680;2022-09-17T17:46:07;12.00;99.90
13416;DHT22;6779;50.150;8.680;2022-09-17T17:48:33;12.00;99.90
13416;DHT22;6779;50.150;8.680;2022-09-17T17:51:07;11.90;99.90
13416;DHT22;6779;50.150;8.680;2022-09-17T17:53:33;11.90;99.90
13416;DHT22;6779;50.150;8.680;2022-09-17T17:56:01;11.90;99.90
13416;DHT22;6779;50.150;8.680;2022-09-17T17:58:27;11.80;99.90
13416;DHT22;6779;50.150;8.680;2022-09-17T18:00:53;11.70;99.90
13416;DHT22;6779;50.150;8.680;2022-09-17T18:03:20;11.70;99.90
13416;DHT22;6779;50.150;8.680;2022-09-17T18:05:55;11.80;99.90
13416;DHT22;6779;50.150;8.680;2022-09-17T18:08:24;11.80;99.90
13416;DHT22;6779;50.150;8.680;2022-09-17T18:10:51;11.80;99.90
13416;DHT22;6779;50.150;8.680;2022-09-17T18:13:17;11.80;99.90
13416;DHT22;6779;50.150;8.680;2022-09-17T18:15:53;11.80;99.90
13416;DHT22;6779;50.150;8.680;2022-09-17T18:18:20;11.80;99.90
13416;DHT22;6779;50.150;8.680;2022-09-17T18:20:46;11.90;99.90
13416;DHT22;6779;50.150;8.680;2022-09-17T18:23:11;11.90;99.90
13416;DHT22;6779;50.150;8.680;2022-09-17T18:25:37;11.80;99.90
13416;DHT22;6779;50.150;8.680;2022-09-17T18:28:02;11.80;99.90
13416;DHT22;6779;50.150;8.680;2022-09-17T18:30:28;11.80;99.90
13416;DHT22;6779;50.150;8.680;2022-09-17T18:32:53;11.80;99.90
13416;DHT22;6779;50.150;8.680;2022-09-17T18:35:19;11.80;99.90
13416;DHT22;6779;50.150;8.680;2022-09-17T18:37:45;11.80;99.90
13416;DHT22;6779;50.150;8.680;2022-09-17T18:40:10;11.80;99.90
13416;DHT22;6779;50.150;8.680;2022-09-17T18:42:36;11.80;99.90
13416;DHT22;6779;50.150;8.680;2022-09-17T18:45:02;11.80;99.90
13416;DHT22;6779;50.150;8.680;2022-09-17T18:47:27;11.70;99.90
13416;DHT22;6779;50.150;8.680;2022-09-17T18:49:53;11.80;99.90
13416;DHT22;6779;50.150;8.680;2022-09-17T18:52:18;11.70;99.90
13416;DHT22;6779;50.150;8.680;2022-09-17T18:54:44;11.80;99.90
13416;DHT22;6779;50.150;8.680;2022-09-17T18:57:11;11.80;99.90
13416;DHT22;6779;50.150;8.680;2022-09-17T18:59:37;11.80;99.90
13416;DHT22;6779;50.150;8.680;2022-09-17T19:02:03;11.70;99.90
13416;DHT22;6779;50.150;8.680;2022-09-17T19:04:28;11.70;99.90
13416;DHT22;6779;50.150;8.680;2022-09-17T19:06:54;11.60;99.90
13416;DHT22;6779;50.150;8.680;2022-09-17T19:09:20;11.70;99.90
13416;DHT22;6779;50.150;8.680;2022-09-17T19:11:45;11.80;99.90
13416;DHT22;6779;50.150;8.680;2022-09-17T19:14:11;11.70;99.90
13416;DHT22;6779;50.150;8.680;2022-09-17T19:16:36;11.80;99.90
13416;DHT22;6779;50.150;8.680;2022-09-17T19:19:02;11.80;99.90
13416;DHT22;6779;50.150;8.680;2022-09-17T19:21:27;11.90;99.90
13416;DHT22;6779;50.150;8.680;2022-09-17T19:23:53;11.90;99.90
13416;DHT22;6779;50.150;8.680;2022-09-17T19:26:22;11.90;99.90